createdAt,value
2023-04-27T00:01:00.386Z,3.83
2023-04-27T00:03:27.392Z,3.87
2023-04-27T00:05:54.220Z,3.78
2023-04-27T00:08:20.830Z,3.89
2023-04-27T00:10:47.277Z,3.90
2023-04-27T00:13:13.710Z,4.05
2023-04-27T00:15:40.935Z,3.96
2023-04-27T00:18:07.475Z,3.94
2023-04-27T00:20:34.157Z,3.94
2023-04-27T00:23:00.659Z,3.91
2023-04-27T00:25:27.164Z,3.83
2023-04-27T00:27:53.670Z,3.92
2023-04-27T00:30:20.231Z,3.69
2023-04-27T00:32:46.752Z,3.69
2023-04-27T00:35:13.337Z,3.79
2023-04-27T00:37:39.834Z,3.74
2023-04-27T00:40:07.905Z,3.80
2023-04-27T00:42:34.982Z,3.90
2023-04-27T00:45:02.095Z,3.84
2023-04-27T00:47:29.772Z,3.83
2023-04-27T00:49:56.244Z,3.83
2023-04-27T00:52:22.774Z,3.83
2023-04-27T00:54:50.678Z,3.77
2023-04-27T00:57:17.236Z,3.78
2023-04-27T00:59:43.732Z,3.81
2023-04-27T01:02:11.133Z,3.87
2023-04-27T01:04:37.787Z,3.96
2023-04-27T01:07:04.443Z,3.93
2023-04-27T01:09:30.992Z,3.94
2023-04-27T01:11:58.365Z,3.97
2023-04-27T01:14:24.895Z,4.00
2023-04-27T01:16:52.013Z,3.92
2023-04-27T01:19:18.481Z,3.91
2023-04-27T01:21:44.949Z,3.98
2023-04-27T01:24:11.442Z,3.84
2023-04-27T01:26:37.927Z,3.95
2023-04-27T01:29:04.507Z,3.91
2023-04-27T01:31:31.259Z,3.84
2023-04-27T01:33:57.740Z,3.76
2023-04-27T01:36:24.266Z,3.71
2023-04-27T01:38:51.522Z,3.84
2023-04-27T01:41:18.021Z,3.72
2023-04-27T01:43:44.547Z,3.90
2023-04-27T01:46:12.260Z,3.81
2023-04-27T01:48:39.191Z,3.55
2023-04-27T01:51:05.833Z,3.67
2023-04-27T01:53:32.297Z,3.81
2023-04-27T01:56:01.681Z,3.70
2023-04-27T01:58:28.298Z,3.71
2023-04-27T02:00:54.775Z,3.70
2023-04-27T02:03:21.684Z,3.81
2023-04-27T02:05:48.475Z,3.75
2023-04-27T02:08:14.942Z,3.85
2023-04-27T02:10:41.412Z,3.89
2023-04-27T02:13:08.165Z,3.91
2023-04-27T02:15:35.405Z,3.89
2023-04-27T02:18:03.300Z,4.01
2023-04-27T02:20:31.146Z,3.95
2023-04-27T02:22:57.657Z,3.92
2023-04-27T02:25:24.164Z,3.81
2023-04-27T02:27:50.722Z,3.90
2023-04-27T02:30:17.700Z,3.88
2023-04-27T02:32:44.888Z,3.80
2023-04-27T02:35:11.546Z,3.91
2023-04-27T02:37:38.093Z,3.92
2023-04-27T02:40:07.744Z,3.80
2023-04-27T02:42:34.257Z,3.70
2023-04-27T02:45:00.899Z,3.77
2023-04-27T02:47:27.378Z,3.84
2023-04-27T02:49:53.962Z,3.78
2023-04-27T02:52:20.513Z,3.80
2023-04-27T02:54:47.016Z,3.69
2023-04-27T02:57:13.524Z,3.69
2023-04-27T02:59:40.016Z,3.75
2023-04-27T03:02:06.541Z,3.65
2023-04-27T03:04:33.057Z,3.60
2023-04-27T03:06:59.548Z,3.52
2023-04-27T03:09:26.070Z,3.58
2023-04-27T03:11:52.874Z,3.59
2023-04-27T03:14:19.344Z,3.53
2023-04-27T03:16:45.915Z,3.45
2023-04-27T03:19:12.713Z,3.40
2023-04-27T03:21:39.411Z,3.39
2023-04-27T03:24:06.117Z,3.41
2023-04-27T03:26:32.610Z,3.47
2023-04-27T03:28:59.080Z,3.51
2023-04-27T03:31:25.626Z,3.56
2023-04-27T03:33:52.192Z,3.54
2023-04-27T03:36:18.682Z,3.52
2023-04-27T03:38:45.398Z,3.49
2023-04-27T03:41:12.449Z,3.21
2023-04-27T03:43:38.984Z,3.26
2023-04-27T03:46:05.494Z,3.36
2023-04-27T03:48:32.059Z,3.31
2023-04-27T03:50:58.523Z,3.17
2023-04-27T03:53:25.060Z,3.21
2023-04-27T03:55:51.592Z,3.19
2023-04-27T03:58:18.234Z,3.19
2023-04-27T04:00:45.027Z,3.05
2023-04-27T04:03:11.874Z,3.14
2023-04-27T04:05:38.459Z,3.06
2023-04-27T04:08:04.974Z,3.11
2023-04-27T04:10:31.585Z,3.16
2023-04-27T04:12:58.081Z,3.04
2023-04-27T04:15:24.574Z,2.92
2023-04-27T04:17:51.193Z,2.90
2023-04-27T04:20:17.769Z,2.97
2023-04-27T04:22:44.325Z,2.99
2023-04-27T04:25:10.826Z,2.96
2023-04-27T04:27:37.613Z,2.96
2023-04-27T04:30:06.097Z,2.94
2023-04-27T04:32:33.737Z,2.95
2023-04-27T04:35:01.520Z,2.96
2023-04-27T04:37:28.239Z,2.93
2023-04-27T04:39:54.765Z,2.92
2023-04-27T04:42:21.416Z,2.98
2023-04-27T04:44:47.885Z,2.94
2023-04-27T04:47:14.441Z,3.00
2023-04-27T04:49:40.998Z,3.10
2023-04-27T04:52:07.499Z,3.08
2023-04-27T04:54:33.990Z,3.11
2023-04-27T04:57:02.228Z,3.16
2023-04-27T04:59:30.898Z,3.20
2023-04-27T05:01:58.624Z,3.26
2023-04-27T05:04:25.457Z,3.32
2023-04-27T05:06:52.924Z,3.44
2023-04-27T05:09:19.453Z,3.32
2023-04-27T05:11:45.907Z,3.36
2023-04-27T05:14:12.389Z,3.31
2023-04-27T05:16:39.013Z,3.39
2023-04-27T05:19:06.006Z,3.45
2023-04-27T05:21:33.530Z,3.62
2023-04-27T05:24:00.197Z,3.72
2023-04-27T05:26:26.688Z,3.65
2023-04-27T05:28:53.157Z,3.74
2023-04-27T05:31:19.737Z,3.89
2023-04-27T05:33:46.326Z,3.87
2023-04-27T05:36:12.797Z,3.82
2023-04-27T05:38:40.622Z,3.86
2023-04-27T05:41:07.516Z,4.19
2023-04-27T05:43:35.092Z,4.38
2023-04-27T05:46:01.782Z,4.52
2023-04-27T05:48:28.363Z,4.45
2023-04-27T05:51:04.035Z,4.71
2023-04-27T05:53:30.787Z,4.89
2023-04-27T05:55:59.204Z,4.89
2023-04-27T05:58:25.728Z,5.22
2023-04-27T06:00:53.639Z,5.18
2023-04-27T06:03:20.292Z,5.40
2023-04-27T06:05:46.845Z,5.36
2023-04-27T06:08:13.471Z,5.38
2023-04-27T06:10:40.097Z,5.49
2023-04-27T06:13:06.856Z,5.56
2023-04-27T06:15:33.383Z,5.57
2023-04-27T06:17:59.969Z,5.55
2023-04-27T06:20:27.094Z,5.12
2023-04-27T06:22:53.608Z,5.17
2023-04-27T06:25:20.123Z,5.47
2023-04-27T06:27:47.391Z,5.28
2023-04-27T06:30:14.006Z,5.41
2023-04-27T06:32:40.692Z,5.41
2023-04-27T06:35:07.470Z,5.49
2023-04-27T06:37:34.057Z,5.43
2023-04-27T06:40:00.577Z,5.69
2023-04-27T06:42:27.373Z,5.79
2023-04-27T06:44:55.826Z,5.76
2023-04-27T06:47:22.688Z,5.98
2023-04-27T06:49:49.873Z,6.20
2023-04-27T06:52:16.600Z,5.75
2023-04-27T06:54:43.106Z,6.12
2023-04-27T06:57:09.620Z,6.08
2023-04-27T06:59:36.124Z,6.35
2023-04-27T07:02:03.227Z,6.12
2023-04-27T07:04:30.259Z,6.65
2023-04-27T07:06:57.274Z,6.76
2023-04-27T07:09:27.480Z,6.77
2023-04-27T07:11:55.183Z,7.06
2023-04-27T07:14:22.059Z,7.07
2023-04-27T07:16:49.911Z,7.00
2023-04-27T07:19:16.751Z,6.96
2023-04-27T07:21:43.371Z,7.03
2023-04-27T07:24:10.133Z,7.33
2023-04-27T07:26:37.510Z,7.73
2023-04-27T07:29:11.130Z,7.62
2023-04-27T07:31:46.176Z,7.65
2023-04-27T07:34:12.888Z,7.80
2023-04-27T07:36:40.093Z,7.81
2023-04-27T07:39:08.047Z,7.80
2023-04-27T07:41:35.449Z,8.08
2023-04-27T07:44:02.841Z,8.54
2023-04-27T07:46:31.665Z,8.92
2023-04-27T07:48:59.729Z,8.59
2023-04-27T07:51:28.559Z,8.73
2023-04-27T07:53:55.702Z,8.79
2023-04-27T07:56:22.199Z,8.99
2023-04-27T07:58:48.695Z,8.54
2023-04-27T08:01:15.267Z,9.44
2023-04-27T08:03:42.063Z,9.31
2023-04-27T08:06:09.140Z,9.60
2023-04-27T08:08:36.286Z,9.75
2023-04-27T08:11:03.035Z,9.98
2023-04-27T08:13:29.497Z,9.32
2023-04-27T08:15:58.545Z,10.05
2023-04-27T08:18:25.988Z,9.97
2023-04-27T08:20:52.665Z,9.56
2023-04-27T08:23:19.265Z,10.20
2023-04-27T08:25:45.763Z,9.78
2023-04-27T08:28:13.144Z,10.22
2023-04-27T08:30:39.639Z,10.08
2023-04-27T08:33:06.215Z,10.34
2023-04-27T08:35:32.753Z,10.82
2023-04-27T08:37:59.269Z,10.65
2023-04-27T08:40:25.884Z,10.51
2023-04-27T08:42:57.386Z,10.73
2023-04-27T08:45:24.784Z,11.25
2023-04-27T08:47:51.446Z,11.68
2023-04-27T08:50:18.190Z,11.43
2023-04-27T08:52:48.116Z,10.89
2023-04-27T08:55:16.701Z,11.44
2023-04-27T08:57:54.051Z,11.53
2023-04-27T09:00:20.933Z,11.63
2023-04-27T09:02:48.097Z,11.57
2023-04-27T09:05:22.356Z,11.75
2023-04-27T09:08:05.285Z,11.97
2023-04-27T09:10:43.062Z,11.33
2023-04-27T09:13:09.505Z,11.37
2023-04-27T09:15:43.104Z,12.16
2023-04-27T09:18:21.159Z,11.71
2023-04-27T09:20:51.918Z,11.96
2023-04-27T09:23:31.357Z,11.55
2023-04-27T09:25:59.268Z,12.40
2023-04-27T09:28:27.661Z,13.12
2023-04-27T09:30:58.409Z,13.14
2023-04-27T09:33:26.089Z,13.19
2023-04-27T09:35:53.090Z,13.39
2023-04-27T09:38:20.147Z,13.13
2023-04-27T09:40:46.977Z,12.82
2023-04-27T09:43:13.520Z,12.79
2023-04-27T09:45:40.123Z,12.84
2023-04-27T09:48:06.692Z,12.83
2023-04-27T09:50:39.624Z,12.87
2023-04-27T09:53:07.731Z,12.87
2023-04-27T09:55:38.112Z,13.04
2023-04-27T09:58:35.876Z,12.18
2023-04-27T10:01:27.695Z,11.85
2023-04-27T10:04:19.145Z,12.00
2023-04-27T10:07:01.234Z,12.30
2023-04-27T10:09:31.688Z,13.15
2023-04-27T10:12:22.631Z,12.03
2023-04-27T10:14:55.888Z,12.86
2023-04-27T10:17:36.315Z,13.11
2023-04-27T10:20:07.515Z,12.86
2023-04-27T10:22:39.166Z,12.97
2023-04-27T10:25:24.394Z,12.98
2023-04-27T10:27:53.803Z,12.47
2023-04-27T10:30:21.075Z,13.12
2023-04-27T10:32:58.554Z,13.21
2023-04-27T10:35:44.346Z,13.16
2023-04-27T10:38:18.838Z,13.77
2023-04-27T10:40:46.464Z,14.41
2023-04-27T10:43:17.422Z,13.93
2023-04-27T10:45:44.277Z,14.35
2023-04-27T10:48:15.570Z,14.53
2023-04-27T10:50:42.603Z,14.35
2023-04-27T10:53:09.191Z,14.39
2023-04-27T10:55:36.150Z,14.51
2023-04-27T10:58:03.778Z,14.89
2023-04-27T11:00:36.693Z,14.88
2023-04-27T11:03:14.234Z,13.87
2023-04-27T11:05:43.084Z,13.37
2023-04-27T11:08:11.312Z,13.66
2023-04-27T11:10:43.257Z,14.78
2023-04-27T11:13:23.002Z,14.89
2023-04-27T11:15:54.376Z,14.14
2023-04-27T11:18:21.895Z,13.96
2023-04-27T11:20:52.992Z,13.96
2023-04-27T11:23:29.965Z,14.95
2023-04-27T11:25:56.690Z,15.84
2023-04-27T11:28:24.261Z,15.90
2023-04-27T11:31:00.635Z,14.87
2023-04-27T11:33:27.527Z,14.76
2023-04-27T11:35:54.068Z,15.13
2023-04-27T11:38:22.199Z,15.32
2023-04-27T11:41:07.596Z,15.89
2023-04-27T11:43:34.329Z,14.86
2023-04-27T11:46:04.567Z,14.87
2023-04-27T11:48:31.181Z,14.90
2023-04-27T11:50:59.146Z,15.40
2023-04-27T11:53:38.917Z,16.09
2023-04-27T11:56:10.632Z,14.93
2023-04-27T11:58:38.367Z,15.36
2023-04-27T12:01:05.105Z,15.78
2023-04-27T12:03:31.993Z,15.89
2023-04-27T12:06:11.657Z,16.15
2023-04-27T12:08:45.145Z,17.29
2023-04-27T12:11:11.602Z,16.43
2023-04-27T12:13:38.098Z,15.64
2023-04-27T12:16:05.161Z,16.46
2023-04-27T12:18:31.803Z,16.48
2023-04-27T12:21:02.811Z,17.01
2023-04-27T12:23:29.880Z,16.24
2023-04-27T12:25:56.489Z,17.03
2023-04-27T12:28:23.359Z,17.36
2023-04-27T12:30:50.082Z,17.35
2023-04-27T12:33:17.223Z,17.46
2023-04-27T12:35:43.745Z,17.86
2023-04-27T12:38:10.236Z,17.79
2023-04-27T12:40:36.762Z,16.83
2023-04-27T12:43:03.317Z,16.63
2023-04-27T12:45:30.198Z,16.37
2023-04-27T12:48:03.410Z,15.49
2023-04-27T12:50:33.715Z,15.91
2023-04-27T12:53:00.390Z,15.29
2023-04-27T12:55:33.701Z,15.94
2023-04-27T12:58:02.410Z,17.06
2023-04-27T13:00:29.886Z,17.06
2023-04-27T13:02:56.822Z,16.25
2023-04-27T13:05:23.556Z,15.81
2023-04-27T13:07:50.151Z,15.83
2023-04-27T13:10:16.695Z,15.61
2023-04-27T13:12:43.285Z,16.49
2023-04-27T13:15:10.222Z,16.51
2023-04-27T13:17:36.954Z,16.42
2023-04-27T13:20:03.972Z,16.51
2023-04-27T13:22:30.539Z,17.62
2023-04-27T13:24:57.016Z,17.08
2023-04-27T13:27:25.267Z,17.31
2023-04-27T13:29:51.811Z,16.25
2023-04-27T13:32:18.593Z,16.92
2023-04-27T13:34:45.245Z,16.20
2023-04-27T13:37:11.722Z,16.12
2023-04-27T13:39:38.343Z,15.57
2023-04-27T13:42:05.164Z,15.67
2023-04-27T13:44:31.869Z,15.55
2023-04-27T13:46:58.564Z,16.91
2023-04-27T13:49:25.960Z,17.39
2023-04-27T13:51:52.519Z,18.02
2023-04-27T13:54:19.921Z,17.73
2023-04-27T13:56:46.613Z,18.11
2023-04-27T13:59:13.313Z,18.47
2023-04-27T14:01:40.083Z,18.43
2023-04-27T14:04:08.231Z,18.49
2023-04-27T14:06:35.062Z,18.60
2023-04-27T14:09:01.540Z,18.98
2023-04-27T14:11:28.082Z,19.34
2023-04-27T14:13:54.566Z,18.72
2023-04-27T14:16:21.232Z,19.27
2023-04-27T14:18:47.714Z,18.09
2023-04-27T14:21:14.338Z,18.59
2023-04-27T14:23:40.916Z,18.65
2023-04-27T14:26:07.536Z,18.21
2023-04-27T14:28:34.558Z,17.83
2023-04-27T14:31:01.074Z,17.83
2023-04-27T14:33:27.589Z,19.43
2023-04-27T14:35:54.215Z,19.25
2023-04-27T14:38:20.725Z,19.43
2023-04-27T14:40:47.536Z,18.98
2023-04-27T14:43:14.109Z,19.73
2023-04-27T14:45:51.094Z,20.13
2023-04-27T14:48:19.442Z,18.58
2023-04-27T14:50:46.188Z,17.31
2023-04-27T14:53:12.682Z,17.16
2023-04-27T14:55:41.181Z,17.34
2023-04-27T14:58:07.735Z,16.56
2023-04-27T15:00:34.428Z,16.59
2023-04-27T15:03:01.417Z,17.45
2023-04-27T15:05:28.105Z,16.96
2023-04-27T15:07:54.574Z,16.92
2023-04-27T15:10:21.279Z,16.70
2023-04-27T15:12:47.826Z,17.29
2023-04-27T15:15:14.286Z,17.15
2023-04-27T15:17:41.597Z,17.11
2023-04-27T15:20:08.499Z,16.27
2023-04-27T15:22:34.982Z,15.83
2023-04-27T15:25:01.458Z,15.84
2023-04-27T15:27:27.963Z,15.58
2023-04-27T15:29:54.818Z,16.05
2023-04-27T15:32:23.276Z,16.03
2023-04-27T15:34:49.961Z,15.64
2023-04-27T15:37:16.475Z,16.13
2023-04-27T15:39:43.000Z,15.46
2023-04-27T15:42:09.484Z,15.54
2023-04-27T15:44:36.546Z,16.17
2023-04-27T15:47:03.738Z,16.49
2023-04-27T15:49:30.400Z,16.83
2023-04-27T15:51:56.884Z,16.38
2023-04-27T15:54:23.457Z,16.86
2023-04-27T15:56:49.940Z,16.72
2023-04-27T15:59:16.708Z,16.62
2023-04-27T16:01:43.663Z,16.25
2023-04-27T16:04:10.273Z,15.94
2023-04-27T16:06:37.114Z,16.28
2023-04-27T16:09:04.020Z,16.81
2023-04-27T16:11:31.397Z,16.61
2023-04-27T16:13:58.048Z,16.46
2023-04-27T16:16:24.648Z,15.62
2023-04-27T16:18:51.179Z,15.41
2023-04-27T16:21:17.655Z,15.11
2023-04-27T16:23:44.300Z,14.74
2023-04-27T16:26:11.123Z,14.69
2023-04-27T16:28:38.070Z,14.80
2023-04-27T16:31:04.659Z,15.12
2023-04-27T16:33:31.363Z,14.96
2023-04-27T16:35:57.948Z,15.06
2023-04-27T16:38:24.455Z,15.04
2023-04-27T16:40:52.532Z,14.88
2023-04-27T16:43:19.235Z,15.18
2023-04-27T16:45:45.945Z,14.98
2023-04-27T16:48:12.571Z,14.90
2023-04-27T16:50:39.155Z,15.18
2023-04-27T16:53:10.893Z,15.30
2023-04-27T16:55:37.428Z,15.43
2023-04-27T16:58:04.006Z,15.28
2023-04-27T17:00:30.566Z,15.32
2023-04-27T17:02:57.080Z,15.36
2023-04-27T17:05:23.678Z,15.23
2023-04-27T17:07:50.212Z,14.78
2023-04-27T17:10:17.395Z,14.58
2023-04-27T17:12:43.835Z,14.56
2023-04-27T17:15:10.769Z,14.51
2023-04-27T17:17:37.375Z,14.02
2023-04-27T17:20:06.311Z,13.57
2023-04-27T17:22:33.077Z,13.74
2023-04-27T17:24:59.598Z,13.78
2023-04-27T17:27:26.338Z,13.78
2023-04-27T17:29:53.889Z,13.74
2023-04-27T17:32:20.557Z,13.17
2023-04-27T17:34:47.195Z,12.78
2023-04-27T17:37:14.869Z,12.45
2023-04-27T17:39:41.449Z,12.84
2023-04-27T17:42:12.115Z,12.69
2023-04-27T17:44:41.125Z,12.72
2023-04-27T17:47:07.914Z,12.81
2023-04-27T17:49:34.413Z,12.69
2023-04-27T17:52:01.110Z,12.36
2023-04-27T17:54:29.948Z,12.42
2023-04-27T17:56:56.749Z,12.40
2023-04-27T17:59:23.888Z,11.95
2023-04-27T18:01:50.480Z,12.12
2023-04-27T18:04:17.129Z,12.01
2023-04-27T18:06:43.893Z,11.12
2023-04-27T18:09:10.435Z,11.09
2023-04-27T18:11:36.940Z,10.94
2023-04-27T18:14:04.278Z,11.10
2023-04-27T18:16:30.823Z,11.07
2023-04-27T18:18:57.289Z,11.17
2023-04-27T18:21:26.613Z,11.10
2023-04-27T18:23:53.174Z,10.70
2023-04-27T18:26:20.117Z,10.69
2023-04-27T18:28:46.611Z,10.60
2023-04-27T18:31:14.478Z,10.56
2023-04-27T18:33:41.372Z,10.32
2023-04-27T18:36:08.346Z,10.41
2023-04-27T18:38:34.822Z,9.93
2023-04-27T18:41:01.288Z,9.63
2023-04-27T18:43:27.928Z,9.39
2023-04-27T18:45:54.475Z,9.35
2023-04-27T18:48:21.348Z,9.65
2023-04-27T18:50:49.335Z,9.68
2023-04-27T18:53:16.025Z,9.19
2023-04-27T18:55:42.553Z,9.27
2023-04-27T18:58:09.160Z,9.25
2023-04-27T19:00:37.549Z,9.25
2023-04-27T19:03:04.712Z,9.33
2023-04-27T19:05:31.789Z,9.11
2023-04-27T19:07:58.269Z,8.91
2023-04-27T19:10:24.808Z,8.77
2023-04-27T19:12:51.489Z,8.69
2023-04-27T19:15:17.956Z,8.41
2023-04-27T19:17:44.568Z,8.47
2023-04-27T19:20:11.760Z,8.24
2023-04-27T19:22:38.262Z,8.19
2023-04-27T19:25:04.995Z,8.17
2023-04-27T19:27:31.644Z,8.06
2023-04-27T19:29:58.656Z,8.16
2023-04-27T19:32:26.814Z,8.00
2023-04-27T19:34:54.851Z,7.99
2023-04-27T19:37:21.873Z,7.85
2023-04-27T19:39:48.368Z,7.33
2023-04-27T19:42:15.396Z,7.49
2023-04-27T19:44:42.078Z,7.39
2023-04-27T19:47:10.777Z,7.28
2023-04-27T19:49:37.687Z,7.36
2023-04-27T19:52:05.135Z,7.34
2023-04-27T19:54:31.681Z,7.12
2023-04-27T19:56:58.322Z,6.93
2023-04-27T19:59:26.007Z,6.73
2023-04-27T20:01:52.549Z,6.84
2023-04-27T20:04:21.034Z,6.98
2023-04-27T20:06:48.734Z,7.04
2023-04-27T20:09:15.328Z,7.15
2023-04-27T20:11:41.843Z,6.84
2023-04-27T20:14:08.306Z,6.87
2023-04-27T20:16:34.816Z,6.68
2023-04-27T20:19:01.339Z,6.64
2023-04-27T20:21:28.054Z,6.74
2023-04-27T20:23:54.689Z,6.58
2023-04-27T20:26:21.343Z,6.45
2023-04-27T20:28:48.556Z,6.45
2023-04-27T20:31:15.507Z,6.35
2023-04-27T20:33:42.194Z,6.37
2023-04-27T20:36:16.581Z,6.12
2023-04-27T20:38:44.192Z,6.27
2023-04-27T20:41:12.238Z,6.14
2023-04-27T20:43:39.829Z,6.19
2023-04-27T20:46:07.495Z,6.20
2023-04-27T20:48:34.275Z,6.15
2023-04-27T20:51:00.759Z,6.02
2023-04-27T20:53:27.305Z,6.15
2023-04-27T20:55:53.750Z,6.22
2023-04-27T20:58:20.406Z,6.20
2023-04-27T21:00:47.008Z,6.20
2023-04-27T21:03:14.171Z,6.18
2023-04-27T21:05:41.397Z,6.14
2023-04-27T21:08:07.925Z,6.27
2023-04-27T21:10:35.434Z,6.00
2023-04-27T21:13:03.957Z,6.11
2023-04-27T21:15:30.600Z,6.30
2023-04-27T21:17:57.220Z,6.21
2023-04-27T21:20:23.745Z,5.99
2023-04-27T21:22:50.282Z,6.11
2023-04-27T21:25:16.753Z,5.98
2023-04-27T21:27:43.213Z,5.89
2023-04-27T21:30:10.357Z,5.92
2023-04-27T21:32:37.014Z,5.79
2023-04-27T21:35:03.650Z,5.84
2023-04-27T21:37:30.439Z,5.70
2023-04-27T21:39:56.919Z,5.62
2023-04-27T21:42:23.383Z,5.57
2023-04-27T21:44:49.896Z,5.62
2023-04-27T21:47:16.382Z,5.67
2023-04-27T21:49:42.838Z,5.44
2023-04-27T21:52:10.420Z,5.45
2023-04-27T21:54:36.966Z,5.41
2023-04-27T21:57:04.099Z,5.28
2023-04-27T21:59:30.975Z,5.31
2023-04-27T22:01:59.356Z,5.28
2023-04-27T22:04:26.161Z,5.18
2023-04-27T22:06:52.927Z,5.17
2023-04-27T22:09:19.513Z,5.15
2023-04-27T22:11:46.562Z,5.06
2023-04-27T22:14:13.208Z,5.17
2023-04-27T22:16:39.821Z,5.07
2023-04-27T22:19:06.849Z,5.02
2023-04-27T22:21:33.485Z,5.02
2023-04-27T22:23:59.986Z,4.80
2023-04-27T22:26:26.445Z,4.85
2023-04-27T22:28:53.283Z,4.87
2023-04-27T22:31:19.785Z,5.02
2023-04-27T22:33:46.288Z,4.85
2023-04-27T22:36:13.350Z,4.81
2023-04-27T22:38:39.790Z,5.00
2023-04-27T22:41:06.246Z,5.13
2023-04-27T22:43:32.730Z,4.99
2023-04-27T22:45:59.205Z,4.84
2023-04-27T22:48:25.910Z,4.72
2023-04-27T22:50:52.376Z,4.88
2023-04-27T22:53:18.824Z,4.92
2023-04-27T22:55:45.311Z,5.18
2023-04-27T22:58:11.863Z,4.83
2023-04-27T23:00:38.467Z,5.04
2023-04-27T23:03:05.247Z,4.90
2023-04-27T23:05:32.023Z,4.91
2023-04-27T23:07:59.766Z,4.93
2023-04-27T23:10:26.771Z,4.92
2023-04-27T23:12:54.881Z,5.04
2023-04-27T23:15:23.814Z,4.89
2023-04-27T23:17:50.373Z,5.03
2023-04-27T23:22:51.402Z,5.00
2023-04-27T23:25:17.949Z,5.26
2023-04-27T23:27:44.402Z,5.35
2023-04-27T23:30:11.585Z,5.42
2023-04-27T23:32:38.273Z,5.48
2023-04-27T23:35:05.654Z,5.44
2023-04-27T23:37:32.156Z,5.41
2023-04-27T23:39:59.079Z,5.48
2023-04-27T23:42:25.554Z,5.43
2023-04-27T23:44:52.997Z,5.46
2023-04-27T23:47:19.591Z,5.31
2023-04-27T23:49:46.049Z,5.40
2023-04-27T23:52:12.530Z,5.35
2023-04-27T23:54:39.011Z,5.43
2023-04-27T23:57:05.582Z,5.30
2023-04-27T23:59:35.390Z,5.33
